• Join FlightAware (Why Join?)
  • Login
  • US Flag 
04:24PM EST


 

Airport Tracker/Info


-or-


 

Live Flight TrackerFlight Track Log ✈ AWE1454 ✈ 21-Apr-2013 ✈ KATL - KPHL

Flight Track Log - Related Links

Times and Time Zones

All times are in EDT time to prevent confusion due to time zone crossing. See the AWE1454 flight status page for this flight to view local times or setup timezone preferences in your user account.

Time Position Orientation Groundspeed Altitude Reporting Facility
EDT Latitude Longitude Course Direction KTS MPH feet Rate Location/Type
01:11PM 33.6500 -84.3667 53° Northeast 166 191 2,600  Level Atlanta TRACON
01:12PM 33.6667 -84.3000 73° East 235 270 4,800 2,400 Climbing Atlanta TRACON
01:13PM 33.7822 -83.9243 54° Northeast  Level FlightAware Approximate
01:13PM 33.6833 -84.2167 76° East 271 312 7,700  Level Atlanta TRACON
01:14PM 33.8468 -83.8166 54° Northeast  Level FlightAware Approximate
01:14PM 33.7192 -84.0839 72° East 313 360 11,600  Level Atlanta Center
01:15PM 33.9178 -83.7149 53° Northeast  Level FlightAware Approximate
01:15PM 33.7317 -83.9814 82° East 307 353 14,100  Level Atlanta Center
01:16PM 33.9841 -83.6085 53° Northeast  Level FlightAware Approximate
01:16PM 33.7442 -83.8639 83° East 334 384 16,000  Level Atlanta Center
01:17PM 33.7878 -83.7539 64° Northeast 346 398 17,300 1,500 Climbing Atlanta Center
01:18PM 33.8603 -83.6486 50° Northeast 394 453 19,100 1,560 Climbing Atlanta Center
01:19PM 33.9289 -83.5531 49° Northeast 413 475 20,500 1,500 Climbing Atlanta Center
01:20PM 34.0097 -83.4400 49° Northeast 437 503 22,200 1,620 Climbing Atlanta Center
01:21PM 34.0906 -83.3189 51° Northeast 456 525 23,800 1,500 Climbing Atlanta Center
01:22PM 34.1753 -83.1953 50° Northeast 461 531 25,200 1,440 Climbing Atlanta Center
01:23PM 34.2622 -83.0711 50° Northeast 474 545 26,700 1,500 Climbing Atlanta Center
01:24PM 34.3528 -82.9417 50° Northeast 494 568 28,200 1,500 Climbing Atlanta Center
01:25PM 34.4394 -82.8147 50° Northeast 489 563 29,700 1,140 Climbing Atlanta Center
01:26PM 34.5358 -82.6719 51° Northeast 494 568 30,500 1,080 Climbing Atlanta Center
01:27PM 34.6139 -82.5547 51° Northeast 506 582 31,900 1,140 Climbing Atlanta Center
01:28PM 34.7019 -82.4217 51° Northeast 501 577 32,800 1,020 Climbing Atlanta Center
01:29PM 34.7919 -82.2911 50° Northeast 501 577 34,000 1,020 Climbing Atlanta Center
01:30PM 34.8797 -82.1575 51° Northeast 501 577 34,900 480 Climbing Atlanta Center
01:31PM 34.9694 -82.0264 50° Northeast 508 585 35,000  Climbing Atlanta Center
01:32PM 35.0528 -81.8897 53° Northeast 500 575 35,000 540 Level Atlanta Center
01:33PM 35.1314 -81.7431 57° Northeast 506 582 36,100 900 Climbing Atlanta Center
01:34PM 35.2081 -81.6011 57° Northeast 506 582 36,800 420 Climbing Atlanta Center
01:35PM 35.2822 -81.4564 58° Northeast 506 582 37,000 60 Climbing Atlanta Center
01:36PM 35.3622 -81.3036 57° Northeast 519 597 37,000  Level Atlanta Center
01:37PM 35.4403 -81.1506 58° Northeast 527 606 37,000  Level Atlanta Center
01:38PM 35.5200 -80.9972 57° Northeast 535 616 37,000  Level Atlanta Center
01:39PM 35.6017 -80.8436 57° Northeast 535 616 37,000  Level Atlanta Center
01:40PM 35.6811 -80.6922 57° Northeast 529 609 37,000  Level Atlanta Center
01:41PM 35.7581 -80.5406 58° Northeast 529 609 37,000  Level Atlanta Center
01:42PM 35.8369 -80.3861 58° Northeast 529 609 37,000  Level Atlanta Center
01:45PM 36.0331 -80.0047 57° Northeast 525 604 37,000  Level Washington Center
01:46PM 36.1156 -79.8578 55° Northeast 520 598 37,000  Level Washington Center
01:47PM 36.2000 -79.7078 55° Northeast 525 604 37,000  Level Washington Center
01:48PM 36.2844 -79.5575 55° Northeast 525 604 37,000 -60 Level Washington Center
01:49PM 36.3686 -79.4097 55° Northeast 525 604 36,900 -540 Descending Washington Center
01:50PM 36.4528 -79.2536 56° Northeast 530 610 36,000 -840 Descending Washington Center
01:51PM 36.5167 -79.1406 55° Northeast 530 610 35,300 -900 Descending Washington Center
01:52PM 36.6067 -78.9814 55° Northeast 513 590 34,300 -660 Descending Washington Center
01:53PM 36.6992 -78.8119 56° Northeast 520 598 34,000 -180 Descending Washington Center
01:54PM 36.7736 -78.6775 55° Northeast 525 604 34,000  Level Washington Center
01:55PM 36.8522 -78.5328 56° Northeast 513 590 34,000 -300 Level Washington Center
01:56PM 36.9375 -78.3750 56° Northeast 500 575 33,400 -1,080 Descending Washington Center
01:57PM 37.0200 -78.2347 54° Northeast 501 577 31,900 -720 Descending Washington Center
01:58PM 37.1158 -78.1444 37° Northeast 477 549 32,000  Climbing Washington Center
01:59PM 37.2322 -78.0544 32° Northeast 477 549 32,000 -120 Level Washington Center
02:00PM 37.3511 -77.9642 31° Northeast 484 557 31,800 -540 Descending Washington Center
02:01PM 37.4675 -77.8761 31° Northeast 484 557 31,000 -420 Descending Washington Center
02:02PM 37.5819 -77.7800 34° Northeast 489 563 31,000  Level Washington Center
02:03PM 37.6964 -77.6756 36° Northeast 494 568 31,000  Level Washington Center
02:04PM 37.8044 -77.5789 35° Northeast 494 568 31,000 -600 Level Washington Center
02:05PM 37.9164 -77.4764 36° Northeast 494 568 29,900 -2,280 Descending Washington Center
02:06PM 38.0414 -77.3636 35° Northeast 494 568 26,500 -3,000 Descending Washington Center
02:07PM 38.1511 -77.2631 36° Northeast 494 568 24,000 -1,260 Descending Washington Center
02:08PM 38.2506 -77.1675 37° Northeast 489 563 24,000  Level Washington Center
02:09PM 38.3686 -77.0614 35° Northeast 489 563 24,000  Level Washington Center
02:10PM 38.4783 -76.9603 36° Northeast 483 556 24,000  Level Washington Center
02:11PM 38.5856 -76.8586 37° Northeast 483 556 24,000  Level Washington Center
02:12PM 38.6806 -76.7592 39° Northeast 488 562 24,000 -780 Level Washington Center
02:13PM 38.7319 -76.6003 67° East 480 552 22,500 -2,040 Descending Washington Center
02:14PM 38.7664 -76.4408 74° East 473 544 20,000 -2,160 Descending Washington Center
02:15PM 38.7967 -76.2894 76° East 453 521 18,200 -2,220 Descending Washington Center
02:16PM 38.8308 -76.1433 73° East 444 511 15,600 -1,620 Descending Washington Center
02:17PM 38.8625 -76.0050 74° East 416 479 15,000 -300 Descending Washington Center
02:18PM 38.8922 -75.8664 75° East 403 464 15,000  Level Washington Center
02:19PM 38.9694 -75.7653 45° Northeast 389 448 15,000 -600 Level Washington Center
02:20PM 39.0614 -75.6878 33° Northeast 378 435 13,800 -1,740 Descending Washington Center
02:20PM 39.1278 -75.6703 12° North 373 429 12,300 -2,400 Descending FAA TRACON SMA TRACON (SMA)
02:21PM 39.1606 -75.6675 North 370 426 11,600 -2,400 Descending FAA TRACON SMA TRACON (SMA)
02:21PM 39.1986 -75.6628 North 361 415 10,700 -1,860 Descending FAA TRACON SMA TRACON (SMA)
02:21PM 39.2283 -75.6594 North 353 406 10,300 -900 Descending FAA TRACON SMA TRACON (SMA)
02:22PM 39.2631 -75.6556 North 318 366 10,100 -480 Descending FAA TRACON SMA TRACON (SMA)
02:22PM 39.2872 -75.6464 16° North 297 342 10,000 -360 Descending FAA TRACON SMA TRACON (SMA)
02:22PM 39.3100 -75.6314 27° Northeast 295 339 9,900 -1,080 Descending FAA TRACON SMA TRACON (SMA)
02:23PM 39.3353 -75.6089 35° Northeast 285 328 9,300 -1,500 Descending FAA TRACON SMA TRACON (SMA)
02:23PM 39.3553 -75.5911 34° Northeast 283 326 8,900 -1,200 Descending FAA TRACON SMA TRACON (SMA)
02:23PM 39.3742 -75.5736 36° Northeast 282 325 8,500 -1,500 Descending FAA TRACON SMA TRACON (SMA)
02:24PM 39.3964 -75.5492 40° Northeast 275 316 7,900 -1,500 Descending FAA TRACON SMA TRACON (SMA)
02:24PM 39.4119 -75.5278 47° Northeast 266 306 7,500 -1,320 Descending FAA TRACON SMA TRACON (SMA)
02:24PM 39.4300 -75.4989 51° Northeast 266 306 7,000 -780 Descending FAA TRACON SMA TRACON (SMA)
02:25PM 39.4458 -75.4775 46° Northeast 265 305 7,000  Level FAA TRACON SMA TRACON (SMA)
02:25PM 39.4608 -75.4553 49° Northeast 266 306 7,000  Level FAA TRACON SMA TRACON (SMA)
02:25PM 39.4803 -75.4281 47° Northeast 265 305 7,000  Level FAA TRACON SMA TRACON (SMA)
02:26PM 39.4947 -75.4056 50° Northeast 267 307 7,000  Level FAA TRACON SMA TRACON (SMA)
02:26PM 39.5100 -75.3833 48° Northeast 267 307 7,000  Level FAA TRACON SMA TRACON (SMA)
02:26PM 39.5247 -75.3608 50° Northeast 268 308 7,000 -180 Level FAA TRACON SMA TRACON (SMA)
02:27PM 39.5431 -75.3317 51° Northeast 269 310 6,900 -600 Descending FAA TRACON SMA TRACON (SMA)
02:27PM 39.5617 -75.3172 31° Northeast 268 308 6,600 -1,080 Descending FAA TRACON SMA TRACON (SMA)
02:27PM 39.5836 -75.3136 North 254 292 6,200 -960 Descending FAA TRACON SMA TRACON (SMA)
02:28PM 39.6089 -75.3225 345° North 244 281 6,000 -240 Descending FAA TRACON SMA TRACON (SMA)
02:28PM 39.6442 -75.3386 341° North 209 241 6,000  Level FAA TRACON SMA TRACON (SMA)
02:29PM 39.6631 -75.3472 341° North 187 215 6,000  Level FAA TRACON SMA TRACON (SMA)
02:29PM 39.6786 -75.3539 342° North 190 219 6,000  Level FAA TRACON SMA TRACON (SMA)
02:29PM 39.6944 -75.3608 341° North 190 219 6,000  Level FAA TRACON SMA TRACON (SMA)
02:30PM 39.7142 -75.3694 341° North 191 220 6,000  Level FAA TRACON SMA TRACON (SMA)
02:30PM 39.7267 -75.3831 320° Northwest 198 228 6,000  Level FAA TRACON SMA TRACON (SMA)
02:30PM 39.7317 -75.4042 287° West 212 244 6,000  Level FAA TRACON SMA TRACON (SMA)
02:31PM 39.7269 -75.4325 258° West 172 198 6,000  Level FAA TRACON SMA TRACON (SMA)
02:31PM 39.7222 -75.4536 254° West 203 234 6,000  Level FAA TRACON SMA TRACON (SMA)
02:31PM 39.7172 -75.4750 253° West 205 236 6,000  Level FAA TRACON SMA TRACON (SMA)
02:32PM 39.7108 -75.5033 254° West 205 236 6,000 -300 Level FAA TRACON SMA TRACON (SMA)
02:32PM 39.7058 -75.5250 253° West 204 235 5,800 -1,080 Descending FAA TRACON SMA TRACON (SMA)
02:32PM 39.7011 -75.5467 254° West 204 235 5,300 -1,440 Descending FAA TRACON SMA TRACON (SMA)
02:33PM 39.7094 -75.5886 284° West 192 221 4,400 -1,320 Descending FAA TRACON SMA TRACON (SMA)
02:33PM 39.7256 -75.5889 359° North 199 229 4,000 -600 Descending FAA TRACON SMA TRACON (SMA)
02:34PM 39.7456 -75.5856 North 190 219 4,000  Level FAA TRACON SMA TRACON (SMA)
02:34PM 39.7619 -75.5831 North 192 221 4,000  Level FAA TRACON SMA TRACON (SMA)
02:34PM 39.7775 -75.5878 347° North 191 220 4,000  Level FAA TRACON SMA TRACON (SMA)
02:35PM 39.7981 -75.5883 359° North 184 212 4,000  Level FAA TRACON SMA TRACON (SMA)
02:35PM 39.8078 -75.5733 50° Northeast 171 197 4,000  Level FAA TRACON SMA TRACON (SMA)
02:35PM 39.8083 -75.5544 88° East 166 191 4,000  Level FAA TRACON SMA TRACON (SMA)
02:36PM 39.8106 -75.5311 83° East 168 193 4,000 -480 Level FAA TRACON SMA TRACON (SMA)
02:36PM 39.8131 -75.5133 80° East 167 192 3,700 -780 Descending FAA TRACON SMA TRACON (SMA)
02:36PM 39.8169 -75.4944 75° East 169 194 3,500 -960 Descending FAA TRACON SMA TRACON (SMA)
02:37PM 39.8203 -75.4761 77° East 168 193 3,100 -1,080 Descending FAA TRACON SMA TRACON (SMA)
02:37PM 39.8250 -75.4536 75° East 168 193 2,800 -780 Descending FAA TRACON SMA TRACON (SMA)
02:37PM 39.8286 -75.4356 75° East 167 192 2,600 -780 Descending FAA TRACON SMA TRACON (SMA)
02:38PM 39.8322 -75.4172 76° East 168 193 2,300 -900 Descending FAA TRACON SMA TRACON (SMA)
02:38PM 39.8369 -75.3947 75° East 168 193 2,000 -1,080 Descending FAA TRACON SMA TRACON (SMA)
02:38PM 39.8406 -75.3767 75° East 167 192 1,600 -900 Descending FAA TRACON SMA TRACON (SMA)
02:39PM 39.8439 -75.3594 76° East 162 186 1,400 -600 Descending FAA TRACON SMA TRACON (SMA)